Decoded Metar for KUGN (CHICAGO in IL, USA) (IATA:UGN) | Meteo·Mobile Aviation Weather
aviador You're here:

KUGN Decoded Metar

CHICAGO in IL, USA
Report Time2018-12-14 12:55:00
UTC Time2018-12-14 13:21:20
Flight Rules lifr LIFR
Wind340° at 03 kt
W.Decomp.*RWY 32: 2.8 kt HW 1.2 kt RCW
RWY 05: 1.2 kt HW 2.8 kt LCW
W.Rank340° ranks 34
Current wind is below 340° avg. (6.3)
Visibility2012 m
Phenomena:Mist
Clouds:Overcast 004 Hf
Expected CloudBase > 400 ft AGL from Temp-Dew spread
Ceiling400 ft
Temp03°C (ISA -11)
Dew Point02°C (93% RH)
AAT0.2°C
QNH1022 hPa
Density Alt-758 ft
Elevation728 ft
Report Wrong Elevation
Raw Report
KUGN 141255Z 34003KT 1 1/4SM BR OVC004 03/02 A3017 RMK AO2 SLP225
T00280017=

Extra information for KUGN:More info

Metar Taf Metar & Taf Last 4 Metars F.Rules Stats Wind Profile Meteogram Temp Stats Airport Information Weather charts Add Link Nearby VenuesMetar ALERT Operation Metar Decoded Social comments

AIRNAV info for KUGN